createdAt,value
2022-12-31T00:01:08.194Z,73.99
2022-12-31T00:03:37.020Z,74.66
2022-12-31T00:06:16.828Z,74.44
2022-12-31T00:08:45.547Z,74.96
2022-12-31T00:11:14.557Z,74.87
2022-12-31T00:13:43.152Z,75.03
2022-12-31T00:16:16.079Z,75.18
2022-12-31T00:18:46.021Z,74.64
2022-12-31T00:21:15.423Z,74.78
2022-12-31T00:23:44.506Z,75.57
2022-12-31T00:26:16.238Z,75.39
2022-12-31T00:28:45.642Z,75.10
2022-12-31T00:31:20.651Z,75.77
2022-12-31T00:33:49.946Z,75.72
2022-12-31T00:36:20.927Z,75.85
2022-12-31T00:38:51.763Z,75.13
2022-12-31T00:41:21.917Z,75.88
2022-12-31T00:43:51.203Z,75.63
2022-12-31T00:46:21.916Z,75.86
2022-12-31T00:48:50.987Z,76.15
2022-12-31T00:51:24.540Z,75.95
2022-12-31T00:53:52.962Z,76.00
2022-12-31T00:56:24.615Z,75.35
2022-12-31T00:58:53.791Z,75.38
2022-12-31T01:01:26.389Z,75.34
2022-12-31T01:04:04.032Z,75.57
2022-12-31T01:06:32.657Z,75.45
2022-12-31T01:09:01.307Z,75.95
2022-12-31T01:11:30.149Z,75.71
2022-12-31T01:14:02.252Z,75.87
2022-12-31T01:16:35.151Z,75.61
2022-12-31T01:19:08.089Z,75.80
2022-12-31T01:21:38.278Z,75.76
2022-12-31T01:24:07.932Z,75.14
2022-12-31T01:26:37.220Z,75.62
2022-12-31T01:29:06.559Z,74.94
2022-12-31T01:31:38.158Z,75.10
2022-12-31T01:34:08.432Z,75.11
2022-12-31T01:36:38.749Z,75.52
2022-12-31T01:39:09.564Z,75.13
2022-12-31T01:41:41.029Z,74.99
2022-12-31T01:44:48.868Z,74.93
2022-12-31T01:47:30.157Z,74.61
2022-12-31T01:50:05.546Z,74.47
2022-12-31T01:52:37.410Z,74.21
2022-12-31T01:55:15.937Z,74.30
2022-12-31T01:57:47.124Z,74.86
2022-12-31T02:00:16.762Z,74.26
2022-12-31T02:02:47.250Z,74.58
2022-12-31T02:05:27.603Z,74.32
2022-12-31T02:07:56.443Z,74.75
2022-12-31T02:10:24.968Z,74.68
2022-12-31T02:12:53.982Z,74.36
2022-12-31T02:15:30.274Z,74.24
2022-12-31T02:18:08.154Z,74.49
2022-12-31T02:21:22.361Z,73.75
2022-12-31T02:24:15.464Z,73.77
2022-12-31T02:27:05.171Z,74.19
2022-12-31T02:30:10.240Z,73.48
2022-12-31T02:32:56.602Z,73.78
2022-12-31T02:35:31.176Z,73.28
2022-12-31T02:38:07.121Z,73.05
2022-12-31T02:40:37.751Z,73.08
2022-12-31T02:43:06.676Z,73.45
2022-12-31T02:45:41.670Z,72.64
2022-12-31T02:48:33.878Z,73.10
2022-12-31T02:51:19.401Z,72.83
2022-12-31T02:54:06.891Z,73.64
2022-12-31T02:56:43.681Z,73.28
2022-12-31T02:59:36.931Z,73.16
2022-12-31T03:02:19.382Z,73.27
2022-12-31T03:04:53.066Z,73.15
2022-12-31T03:07:24.610Z,73.08
2022-12-31T03:09:53.291Z,72.57
2022-12-31T03:12:43.686Z,72.90
2022-12-31T03:15:20.873Z,72.95
2022-12-31T03:17:58.087Z,72.74
2022-12-31T03:20:48.692Z,72.88
2022-12-31T03:23:22.016Z,72.57
2022-12-31T03:25:49.621Z,72.77
2022-12-31T03:28:20.942Z,73.09
2022-12-31T03:30:54.152Z,72.97
2022-12-31T03:33:24.785Z,73.12
2022-12-31T03:35:54.376Z,73.27
2022-12-31T03:38:22.890Z,73.46
2022-12-31T03:40:54.161Z,73.22
2022-12-31T03:43:22.715Z,72.97
2022-12-31T03:45:52.612Z,73.02
2022-12-31T03:48:24.163Z,73.01
2022-12-31T03:50:53.323Z,73.00
2022-12-31T03:53:22.206Z,72.36
2022-12-31T03:55:53.144Z,72.50
2022-12-31T03:58:22.266Z,72.82
2022-12-31T04:00:50.996Z,72.77
2022-12-31T04:03:19.706Z,72.99
2022-12-31T04:05:55.763Z,72.33
2022-12-31T04:08:24.660Z,72.70
2022-12-31T04:10:53.070Z,72.71
2022-12-31T04:13:21.493Z,72.87
2022-12-31T04:15:52.346Z,72.74
2022-12-31T04:18:20.779Z,72.83
2022-12-31T04:20:49.227Z,72.55
2022-12-31T04:23:19.371Z,72.43
2022-12-31T04:25:47.816Z,72.02
2022-12-31T04:28:16.229Z,72.28
2022-12-31T04:30:45.081Z,71.87
2022-12-31T04:33:13.797Z,72.15
2022-12-31T04:35:42.337Z,71.94
2022-12-31T04:38:10.816Z,71.97
2022-12-31T04:41:00.772Z,72.29
2022-12-31T04:43:29.259Z,72.14
2022-12-31T04:45:57.912Z,71.88
2022-12-31T04:48:26.558Z,71.88
2022-12-31T04:50:55.092Z,71.57
2022-12-31T04:53:24.647Z,71.54
2022-12-31T04:55:54.650Z,71.77
2022-12-31T04:58:23.800Z,71.89
2022-12-31T05:00:54.693Z,71.67
2022-12-31T05:03:25.545Z,72.06
2022-12-31T05:05:54.696Z,71.50
2022-12-31T05:08:23.239Z,71.90
2022-12-31T05:10:53.085Z,72.09
2022-12-31T05:13:21.617Z,71.99
2022-12-31T05:15:50.029Z,71.84
2022-12-31T05:18:19.167Z,71.46
2022-12-31T05:20:47.765Z,71.82
2022-12-31T05:23:17.841Z,72.24
2022-12-31T05:25:47.997Z,71.92
2022-12-31T05:28:19.083Z,71.99
2022-12-31T05:30:51.115Z,71.96
2022-12-31T05:33:20.725Z,71.73
2022-12-31T05:35:49.286Z,71.84
2022-12-31T05:38:17.681Z,71.93
2022-12-31T05:40:46.589Z,71.91
2022-12-31T05:43:15.001Z,71.84
2022-12-31T05:45:44.892Z,71.79
2022-12-31T05:48:13.309Z,71.88
2022-12-31T05:50:41.748Z,71.96
2022-12-31T05:53:10.292Z,71.90
2022-12-31T05:55:38.755Z,71.49
2022-12-31T05:58:07.382Z,71.64
2022-12-31T06:00:35.742Z,71.81
2022-12-31T06:03:05.735Z,71.97
2022-12-31T06:05:34.249Z,72.53
2022-12-31T06:08:02.724Z,72.17
2022-12-31T06:10:31.137Z,72.16
2022-12-31T06:12:59.609Z,72.71
2022-12-31T06:15:28.157Z,72.73
2022-12-31T06:17:56.770Z,72.36
2022-12-31T06:20:26.724Z,73.18
2022-12-31T06:22:55.405Z,73.26
2022-12-31T06:25:23.836Z,73.54
2022-12-31T06:27:52.316Z,73.22
2022-12-31T06:30:21.185Z,73.25
2022-12-31T06:32:49.745Z,73.21
2022-12-31T06:35:19.835Z,73.55
2022-12-31T06:37:49.766Z,73.76
2022-12-31T06:40:18.685Z,73.87
2022-12-31T06:42:47.287Z,73.70
2022-12-31T06:45:15.765Z,73.57
2022-12-31T06:47:44.196Z,73.75
2022-12-31T06:50:12.739Z,73.95
2022-12-31T06:52:41.496Z,73.21
2022-12-31T06:55:13.956Z,73.26
2022-12-31T06:57:43.361Z,73.56
2022-12-31T07:00:14.132Z,72.96
2022-12-31T07:03:08.822Z,73.21
2022-12-31T07:05:47.518Z,73.90
2022-12-31T07:08:39.137Z,73.29
2022-12-31T07:11:17.541Z,73.55
2022-12-31T07:14:11.365Z,73.67
2022-12-31T07:16:58.369Z,73.54
2022-12-31T07:19:39.844Z,73.53
2022-12-31T07:22:16.122Z,73.68
2022-12-31T07:24:46.037Z,73.91
2022-12-31T07:27:48.813Z,73.34
2022-12-31T07:30:23.309Z,73.42
2022-12-31T07:33:28.788Z,73.63
2022-12-31T07:36:09.465Z,73.35
2022-12-31T07:38:48.766Z,73.06
2022-12-31T07:41:29.435Z,72.94
2022-12-31T07:44:08.518Z,73.40
2022-12-31T07:46:50.080Z,72.85
2022-12-31T07:49:19.211Z,72.85
2022-12-31T07:51:48.421Z,72.95
2022-12-31T07:54:16.844Z,72.67
2022-12-31T07:56:46.937Z,72.44
2022-12-31T07:59:42.427Z,71.96
2022-12-31T08:02:23.546Z,72.24
2022-12-31T08:05:07.333Z,72.10
2022-12-31T08:07:42.858Z,71.73
2022-12-31T08:10:20.431Z,72.10
2022-12-31T08:12:51.205Z,72.51
2022-12-31T08:15:28.494Z,71.84
2022-12-31T08:17:59.449Z,71.13
2022-12-31T08:20:31.159Z,71.32
2022-12-31T08:23:22.255Z,71.01
2022-12-31T08:26:12.644Z,71.07
2022-12-31T08:29:05.155Z,71.20
2022-12-31T08:31:45.639Z,71.40
2022-12-31T08:34:26.136Z,71.33
2022-12-31T08:37:01.726Z,70.30
2022-12-31T08:39:53.831Z,71.03
2022-12-31T08:42:32.627Z,71.57
2022-12-31T08:45:13.898Z,70.91
2022-12-31T08:47:59.488Z,70.23
2022-12-31T08:50:29.525Z,70.40
2022-12-31T08:52:59.063Z,70.05
2022-12-31T08:55:28.564Z,70.48
2022-12-31T08:58:29.145Z,70.19
2022-12-31T09:01:00.289Z,69.52
2022-12-31T09:04:06.777Z,69.54
2022-12-31T09:06:44.140Z,69.41
2022-12-31T09:09:22.185Z,69.25
2022-12-31T09:12:00.939Z,68.21
2022-12-31T09:14:49.424Z,68.58
2022-12-31T09:17:44.123Z,68.73
2022-12-31T09:20:24.029Z,67.66
2022-12-31T09:22:54.203Z,68.47
2022-12-31T09:25:25.293Z,68.09
2022-12-31T09:28:10.241Z,67.82
2022-12-31T09:30:50.844Z,67.84
2022-12-31T09:33:37.436Z,67.91
2022-12-31T09:36:10.470Z,67.56
2022-12-31T09:38:52.438Z,67.02
2022-12-31T09:41:53.748Z,66.58
2022-12-31T09:45:10.217Z,65.54
2022-12-31T09:48:18.802Z,64.54
2022-12-31T09:51:07.920Z,63.37
2022-12-31T09:54:36.139Z,62.39
2022-12-31T09:57:40.528Z,61.84
2022-12-31T10:00:21.460Z,61.79
2022-12-31T10:03:18.679Z,60.90
2022-12-31T10:06:17.744Z,60.02
2022-12-31T10:09:14.939Z,59.12
2022-12-31T10:12:06.844Z,58.92
2022-12-31T10:14:53.976Z,59.52
2022-12-31T10:17:42.660Z,59.08
2022-12-31T10:20:45.435Z,53.66
2022-12-31T10:23:33.626Z,46.50
2022-12-31T10:26:39.174Z,42.01
2022-12-31T10:29:21.108Z,40.01
2022-12-31T10:32:07.457Z,37.68
2022-12-31T10:34:51.753Z,35.36
2022-12-31T10:37:25.183Z,33.70
2022-12-31T10:40:11.803Z,34.04
2022-12-31T10:43:11.449Z,36.67
2022-12-31T10:46:29.301Z,39.51
2022-12-31T10:49:44.729Z,42.74
2022-12-31T10:53:29.574Z,46.16
2022-12-31T10:56:53.260Z,48.87
2022-12-31T11:00:00.058Z,50.96
2022-12-31T11:03:29.685Z,51.90
2022-12-31T11:07:20.355Z,51.75
2022-12-31T11:10:46.420Z,52.69
2022-12-31T11:14:12.253Z,52.54
2022-12-31T11:17:02.876Z,50.28
2022-12-31T11:19:43.784Z,46.00
2022-12-31T11:22:43.604Z,44.18
2022-12-31T11:25:37.284Z,45.19
2022-12-31T11:28:39.870Z,46.96
2022-12-31T11:31:21.348Z,49.30
2022-12-31T11:34:10.980Z,51.47
2022-12-31T11:36:58.780Z,53.14
2022-12-31T11:39:49.569Z,54.62
2022-12-31T11:42:37.764Z,55.50
2022-12-31T11:45:19.704Z,56.33
2022-12-31T11:51:25.522Z,57.16
2022-12-31T11:54:51.281Z,57.89
2022-12-31T11:57:30.129Z,58.58
2022-12-31T12:00:03.884Z,59.01
2022-12-31T12:02:37.612Z,59.45
2022-12-31T12:05:11.329Z,59.95
2022-12-31T12:07:40.042Z,60.39
2022-12-31T12:10:29.162Z,61.07
2022-12-31T12:13:22.074Z,61.53
2022-12-31T12:15:54.157Z,61.91
2022-12-31T12:18:31.614Z,62.00
2022-12-31T12:21:09.660Z,62.16
2022-12-31T12:23:39.392Z,62.40
2022-12-31T12:26:08.412Z,62.50
2022-12-31T12:28:47.688Z,62.80
2022-12-31T12:31:22.212Z,63.03
2022-12-31T12:33:52.259Z,63.41
2022-12-31T12:36:22.704Z,64.00
2022-12-31T12:39:02.918Z,64.99
2022-12-31T12:41:31.364Z,66.26
2022-12-31T12:44:15.018Z,66.96
2022-12-31T12:46:48.704Z,67.04
2022-12-31T12:49:25.148Z,67.96
2022-12-31T12:52:19.843Z,68.16
2022-12-31T12:55:05.380Z,68.56
2022-12-31T12:57:46.875Z,68.67
2022-12-31T13:00:21.641Z,68.51
2022-12-31T13:03:21.093Z,68.83
2022-12-31T13:06:21.979Z,69.14
2022-12-31T13:09:11.563Z,69.76
2022-12-31T13:11:50.883Z,69.91
2022-12-31T13:14:31.863Z,70.25
2022-12-31T13:17:19.979Z,70.23
2022-12-31T13:19:54.674Z,70.60
2022-12-31T13:22:33.590Z,70.35
2022-12-31T13:25:08.706Z,70.64
2022-12-31T13:27:41.247Z,70.64
2022-12-31T13:30:18.021Z,70.77
2022-12-31T13:32:54.378Z,70.73
2022-12-31T13:35:30.457Z,70.86
2022-12-31T13:38:05.821Z,71.23
2022-12-31T13:40:49.967Z,70.73
2022-12-31T13:43:27.338Z,70.85
2022-12-31T13:46:08.816Z,70.51
2022-12-31T13:48:49.658Z,70.54
2022-12-31T13:51:32.509Z,70.52
2022-12-31T13:54:07.848Z,70.58
2022-12-31T13:56:40.091Z,70.65
2022-12-31T13:59:19.259Z,70.33
2022-12-31T14:01:53.718Z,70.37
2022-12-31T14:04:33.503Z,70.23
2022-12-31T14:07:08.457Z,69.89
2022-12-31T14:09:37.897Z,70.31
2022-12-31T14:12:27.977Z,69.92
2022-12-31T14:15:11.948Z,69.92
2022-12-31T14:17:48.742Z,70.27
2022-12-31T14:20:29.331Z,69.84
2022-12-31T14:23:10.977Z,69.98
2022-12-31T14:25:45.195Z,70.13
2022-12-31T14:28:20.766Z,69.78
2022-12-31T14:30:56.532Z,69.68
2022-12-31T14:33:47.760Z,69.51
2022-12-31T14:36:34.504Z,69.72
2022-12-31T14:39:24.699Z,69.54
2022-12-31T14:42:10.593Z,69.20
2022-12-31T14:44:56.513Z,69.28
2022-12-31T14:47:37.051Z,68.87
2022-12-31T14:50:13.038Z,69.05
2022-12-31T14:52:54.450Z,68.91
2022-12-31T14:55:30.199Z,68.91
2022-12-31T15:00:55.875Z,68.59
2022-12-31T15:03:33.767Z,68.80
2022-12-31T15:06:16.621Z,68.32
2022-12-31T15:09:08.115Z,68.50
2022-12-31T15:12:00.690Z,68.42
2022-12-31T15:15:03.775Z,68.36
2022-12-31T15:17:49.209Z,68.07
2022-12-31T15:20:53.269Z,68.42
2022-12-31T15:23:25.048Z,68.26
2022-12-31T15:26:00.304Z,68.10
2022-12-31T15:28:34.804Z,67.82
2022-12-31T15:31:13.093Z,68.07
2022-12-31T15:33:59.193Z,67.76
2022-12-31T15:36:30.636Z,67.65
2022-12-31T15:39:26.799Z,67.94
2022-12-31T15:44:52.518Z,67.81
2022-12-31T15:47:31.063Z,67.76
2022-12-31T15:50:04.704Z,67.65
2022-12-31T15:52:41.557Z,67.62
2022-12-31T15:55:21.004Z,67.87
2022-12-31T15:57:51.710Z,67.50
2022-12-31T16:00:23.847Z,67.46
2022-12-31T16:02:55.399Z,67.56
2022-12-31T16:05:26.517Z,67.63
2022-12-31T16:07:57.288Z,67.73
2022-12-31T16:10:31.254Z,67.51
2022-12-31T16:13:01.742Z,67.42
2022-12-31T16:15:34.369Z,67.71
2022-12-31T16:18:06.498Z,67.57
2022-12-31T16:20:42.427Z,67.63
2022-12-31T16:23:23.457Z,67.80
2022-12-31T16:25:54.441Z,67.48
2022-12-31T16:28:29.803Z,67.34
2022-12-31T16:31:03.133Z,67.17
2022-12-31T16:33:33.069Z,67.33
2022-12-31T16:36:03.464Z,67.02
2022-12-31T16:38:36.787Z,67.26
2022-12-31T16:41:17.416Z,67.29
2022-12-31T16:43:50.736Z,67.27
2022-12-31T16:46:26.294Z,67.32
2022-12-31T16:48:57.241Z,67.11
2022-12-31T16:51:30.090Z,66.96
2022-12-31T16:53:59.840Z,67.44
2022-12-31T16:56:34.515Z,67.31
2022-12-31T16:59:08.595Z,67.06
2022-12-31T17:01:39.456Z,67.34
2022-12-31T17:04:12.489Z,67.23
2022-12-31T17:06:41.040Z,67.21
2022-12-31T17:09:15.449Z,67.94
2022-12-31T17:11:50.490Z,67.81
2022-12-31T17:14:27.649Z,67.83
2022-12-31T17:17:03.830Z,67.97
2022-12-31T17:19:42.843Z,67.94
2022-12-31T17:22:22.816Z,67.83
2022-12-31T17:25:01.116Z,68.01
2022-12-31T17:27:29.987Z,68.14
2022-12-31T17:30:23.907Z,67.70
2022-12-31T17:32:54.171Z,68.20
2022-12-31T17:35:32.095Z,68.09
2022-12-31T17:38:33.303Z,67.83
2022-12-31T17:41:26.520Z,68.04
2022-12-31T17:43:59.118Z,67.63
2022-12-31T17:46:29.815Z,68.05
2022-12-31T17:49:03.248Z,68.04
2022-12-31T17:51:31.693Z,67.83
2022-12-31T17:54:02.092Z,67.82
2022-12-31T17:56:30.663Z,67.81
2022-12-31T17:59:00.516Z,68.04
2022-12-31T18:01:30.730Z,67.80
2022-12-31T18:03:59.472Z,67.76
2022-12-31T18:06:28.048Z,67.82
2022-12-31T18:08:56.506Z,68.11
2022-12-31T18:11:26.042Z,68.11
2022-12-31T18:13:55.718Z,68.27
2022-12-31T18:16:24.712Z,67.91
2022-12-31T18:19:02.114Z,68.20
2022-12-31T18:21:34.515Z,68.22
2022-12-31T18:26:34.755Z,67.67
2022-12-31T18:29:16.251Z,67.91
2022-12-31T18:31:47.947Z,67.97
2022-12-31T18:34:19.476Z,68.19
2022-12-31T18:36:48.798Z,67.94
2022-12-31T18:39:17.441Z,67.84
2022-12-31T18:41:49.873Z,67.68
2022-12-31T18:44:19.173Z,68.05
2022-12-31T18:46:47.662Z,68.00
2022-12-31T18:49:17.443Z,67.62
2022-12-31T18:51:45.887Z,67.94
2022-12-31T18:54:15.543Z,67.74
2022-12-31T18:56:47.765Z,67.52
2022-12-31T18:59:18.972Z,67.33
2022-12-31T19:01:47.554Z,67.25
2022-12-31T19:04:27.020Z,67.16
2022-12-31T19:06:57.205Z,67.25
2022-12-31T19:12:15.627Z,66.46
2022-12-31T19:14:44.224Z,66.78
2022-12-31T19:17:12.715Z,66.58
2022-12-31T19:19:42.513Z,66.78
2022-12-31T19:22:16.295Z,66.52
2022-12-31T19:24:47.788Z,66.17
2022-12-31T19:27:17.094Z,66.28
2022-12-31T19:29:45.753Z,65.97
2022-12-31T19:32:15.207Z,66.17
2022-12-31T19:34:44.992Z,66.27
2022-12-31T19:37:16.447Z,65.99
2022-12-31T19:39:45.130Z,66.24
2022-12-31T19:42:17.281Z,66.15
2022-12-31T19:44:45.729Z,66.08
2022-12-31T19:47:14.745Z,65.94
2022-12-31T19:49:44.676Z,66.02
2022-12-31T19:52:13.047Z,66.58
2022-12-31T19:54:41.604Z,66.30
2022-12-31T19:57:10.158Z,66.51
2022-12-31T19:59:38.575Z,66.33
2022-12-31T20:02:07.218Z,66.54
2022-12-31T20:04:35.823Z,66.58
2022-12-31T20:07:05.685Z,66.50
2022-12-31T20:09:34.114Z,66.25
2022-12-31T20:12:02.697Z,66.66
2022-12-31T20:14:31.104Z,66.37
2022-12-31T20:16:59.568Z,66.66
2022-12-31T20:19:28.052Z,66.82
2022-12-31T20:21:56.545Z,66.52
2022-12-31T20:24:26.386Z,66.68
2022-12-31T20:26:55.067Z,66.77
2022-12-31T20:29:23.599Z,66.68
2022-12-31T20:31:52.305Z,66.53
2022-12-31T20:34:20.876Z,66.28
2022-12-31T20:36:49.404Z,66.68
2022-12-31T20:39:19.265Z,66.44
2022-12-31T20:41:49.448Z,66.66
2022-12-31T20:44:18.152Z,66.78
2022-12-31T20:46:46.789Z,66.75
2022-12-31T20:49:15.453Z,66.43
2022-12-31T20:51:47.399Z,66.49
2022-12-31T20:54:20.397Z,66.67
2022-12-31T20:56:50.293Z,66.37
2022-12-31T20:59:18.672Z,66.85
2022-12-31T21:02:20.104Z,66.83
2022-12-31T21:04:35.644Z,66.26
2022-12-31T21:07:04.154Z,66.75
2022-12-31T21:09:32.613Z,66.37
2022-12-31T21:12:19.874Z,66.26
2022-12-31T21:14:48.324Z,66.45
2022-12-31T21:17:16.913Z,66.14
2022-12-31T21:19:46.409Z,66.35
2022-12-31T21:22:15.043Z,66.40
2022-12-31T21:24:43.493Z,66.74
2022-12-31T21:27:13.406Z,66.48
2022-12-31T21:30:01.956Z,66.75
2022-12-31T21:32:30.476Z,66.89
2022-12-31T21:35:31.581Z,66.46
2022-12-31T21:37:58.275Z,66.72
2022-12-31T21:40:28.112Z,66.59
2022-12-31T21:42:58.193Z,66.76
2022-12-31T21:45:27.061Z,66.68
2022-12-31T21:48:12.959Z,67.13
2022-12-31T21:50:41.497Z,66.90
2022-12-31T21:53:10.024Z,66.98
2022-12-31T21:55:57.638Z,66.95
2022-12-31T21:58:28.469Z,66.97
2022-12-31T22:01:15.268Z,67.19
2022-12-31T22:03:44.455Z,67.20
2022-12-31T22:06:16.594Z,66.84
2022-12-31T22:08:46.620Z,67.17
2022-12-31T22:11:16.847Z,67.12
2022-12-31T22:13:47.727Z,67.19
2022-12-31T22:16:17.283Z,67.45
2022-12-31T22:18:45.880Z,66.85
2022-12-31T22:21:19.312Z,67.10
2022-12-31T22:23:50.339Z,67.40
2022-12-31T22:26:21.383Z,67.21
2022-12-31T22:28:52.307Z,67.12
2022-12-31T22:31:24.636Z,67.34
2022-12-31T22:33:53.419Z,67.45
2022-12-31T22:36:24.275Z,67.02
2022-12-31T22:38:58.290Z,67.52
2022-12-31T22:41:28.517Z,67.41
2022-12-31T22:44:04.651Z,67.28
2022-12-31T22:46:34.826Z,67.41
2022-12-31T22:49:05.588Z,67.26
2022-12-31T22:51:54.878Z,67.03
2022-12-31T22:54:22.995Z,67.34
2022-12-31T22:56:51.410Z,67.24
2022-12-31T22:59:21.359Z,67.35
2022-12-31T23:01:49.781Z,67.70
2022-12-31T23:04:18.319Z,67.49
2022-12-31T23:06:46.863Z,67.29
2022-12-31T23:09:47.147Z,66.89
2022-12-31T23:12:15.636Z,67.03
2022-12-31T23:15:02.761Z,66.93
2022-12-31T23:17:48.907Z,67.03
2022-12-31T23:20:37.590Z,66.96
2022-12-31T23:23:08.781Z,67.10
2022-12-31T23:25:39.528Z,67.17
2022-12-31T23:28:09.841Z,66.75
2022-12-31T23:30:41.526Z,66.64
2022-12-31T23:33:14.208Z,67.08
2022-12-31T23:35:42.659Z,67.27
2022-12-31T23:38:11.441Z,67.07
2022-12-31T23:40:39.887Z,66.72
2022-12-31T23:43:09.983Z,66.71
2022-12-31T23:45:39.995Z,67.10
2022-12-31T23:48:08.506Z,66.64
2022-12-31T23:50:37.046Z,66.87
2022-12-31T23:53:05.509Z,66.70
2022-12-31T23:55:36.945Z,66.72
2022-12-31T23:58:05.515Z,66.68
